Accueil
METAR-TAF:

METAR-TAF

Aéroports :

Woensdrecht, Pays-Bas

latitude: 51-27N, longitude: 004-20E, altitude: 20 m

Observation

Le bulletin a été fait il y a 13 minutes, à 12:25 UTC
Vent 15 kt de nord/nord-est avec des rafales jusqu'à 26 kt, variant entre nord et est
Température 13°C
Humidité 51%
Pression 1024 hPa
Visibilité 10 km ou plus

METAR: EHWO 281225Z AUTO 03015G26KT 360V090 9999 NCD 13/03 Q1024 BLU

Heure: 13:38 (12:38 UTC)

Prévision

Le bulletin a été fait il y a 22 heures et 51 minutes, à 13:47 UTC
Prévision valable du 27 à 14 UTC au 28 à 02 UTC
Vent 12 kt de nord-est avec des rafales jusqu'à 22 kt
Visibilité 10 km ou plus
pas de nuages en-dessous de 1500 mètres et pas de cumulonimbus.
Evoluant progressivement
du 27 à 16 UTC au 27 à 18 UTC
Vent 8 kt de nord/nord-est

TAF: EHWO 271347Z 2714/2802 04012G22KT CAVOK BECMG 2716/2718 02008KT

Observations et prévisions météorologiques de plus de 4000 aéroports (messages METAR et TAF).

Les stations disponibles sont représentées par des disques jaunes et rouges sur la carte.

Passer la souris dessus pour voir le nom de la station.

Cliquer dessus pour voir les observations et prévisions météorologiques.

Pour changer de carte: cliquez sur les boutons verts avec une croix noire pour zoomer, sur le bouton vert avec un tiret pour effectuer un zoom arrière, ou sur les flèches vertes pour les cartes adjacentes.


METAR-TAF: